Time;durP1;ratioP1;P1;durP2;ratioP2;P2;SDS_P1;SDS_P2;PMS_P1;PMS_P2;Temp;Humidity;BMP_temperature;BMP_pressure;BME280_temperature;BME280_humidity;BME280_pressure;Samples;Min_cycle;Max_cycle;Signal;HPM_P1;HPM_P2
2022/02/01 17:07:59;;;;;;;46.22;20.83;;;-0.20;97.30;;;;;;5782961;23;25964993;-96
2022/02/01 17:23:54;;;;;;;47.35;22.35;;;-0.20;98.00;;;;;;6203971;23;20032;-96
2022/02/01 17:26:35;;;;;;;49.28;24.88;;;-0.20;97.80;;;;;;6116641;23;20044;-95
2022/02/01 17:29:08;;;;;;;41.13;21.20;;;-0.20;97.90;;;;;;6162507;23;20008;-95
2022/02/01 17:31:46;;;;;;;41.53;19.95;;;-0.10;98.00;;;;;;6162129;23;20016;-95
2022/02/01 17:34:21;;;;;;;39.60;20.13;;;-0.10;98.20;;;;;;6162418;23;20004;-96
2022/02/01 17:37:00;;;;;;;33.05;18.02;;;-0.10;98.40;;;;;;6161629;23;19997;-96
2022/02/01 17:39:37;;;;;;;40.17;20.30;;;-0.10;98.40;;;;;;6162113;23;20009;-95
2022/02/01 17:42:10;;;;;;;47.13;21.88;;;-0.10;98.50;;;;;;6162705;23;20012;-94
2022/02/01 17:45:22;;;;;;;61.13;27.45;;;-0.20;98.60;;;;;;6162946;23;20009;-95
2022/02/01 17:48:08;;;;;;;60.60;29.08;;;-0.10;98.50;;;;;;6151743;23;20009;-95
2022/02/01 17:53:53;;;;;;;52.20;26.63;;;-0.20;98.50;;;;;;6198209;23;20009;-95
2022/02/01 17:56:35;;;;;;;45.00;23.70;;;-0.20;99.00;;;;;;6162367;23;20296;-95
2022/02/01 17:59:23;;;;;;;45.40;21.75;;;-0.20;99.00;;;;;;6162566;23;20012;-96
2022/02/01 18:05:33;;;;;;;35.72;15.25;;;-0.40;98.70;;;;;;6190149;23;20008;-96
2022/02/01 18:08:14;;;;;;;36.08;15.23;;;-0.40;99.00;;;;;;6162857;23;20001;-95
2022/02/01 18:10:53;;;;;;;26.70;12.23;;;-0.50;99.10;;;;;;6161681;23;20417;-95
2022/02/01 18:13:40;;;;;;;27.35;13.02;;;-0.50;99.40;;;;;;6160851;23;20021;-96
2022/02/01 18:16:33;;;;;;;25.27;12.30;;;-0.60;99.30;;;;;;6161216;23;20044;-96
2022/02/01 18:19:10;;;;;;;23.27;11.68;;;-0.60;99.00;;;;;;6162182;23;20009;-96
2022/02/01 18:21:46;;;;;;;21.77;11.55;;;-0.70;99.30;;;;;;6152707;23;20082;-96
2022/02/01 18:24:27;;;;;;;23.70;11.10;;;-0.70;99.70;;;;;;6131743;23;20005;-96
2022/02/01 18:27:11;;;;;;;18.20;9.52;;;-0.70;99.40;;;;;;6131097;23;20437;-95
2022/02/01 18:30:18;;;;;;;30.42;13.40;;;-0.70;99.90;;;;;;6132507;23;20025;-95
2022/02/01 18:33:09;;;;;;;28.10;13.77;;;-0.60;99.90;;;;;;6131242;23;20008;-96
2022/02/01 18:36:09;;;;;;;31.30;14.55;;;-0.60;99.20;;;;;;6108138;23;20053;-96
2022/02/01 18:38:47;;;;;;;28.02;13.15;;;-0.60;97.40;;;;;;6128848;23;20056;-96
2022/02/01 18:41:25;;;;;;;31.55;14.98;;;-0.60;98.90;;;;;;6130968;23;20025;-95
2022/02/01 18:44:09;;;;;;;33.35;15.52;;;-0.50;98.60;;;;;;6130218;23;20418;-95
2022/02/01 18:46:40;;;;;;;33.58;16.95;;;-0.50;98.40;;;;;;6132104;23;20006;-94
2022/02/01 18:52:09;;;;;;;25.58;13.25;;;-0.40;99.00;;;;;;6164010;23;20013;-95
2022/02/01 18:54:57;;;;;;;21.98;13.05;;;-0.40;99.40;;;;;;6132600;23;20515;-95
2022/02/01 18:57:46;;;;;;;24.38;12.05;;;-0.30;99.80;;;;;;6131475;23;19998;-95
2022/02/01 19:04:08;;;;;;;27.33;15.00;;;-0.20;99.80;;;;;;6152847;23;20017;-96
2022/02/01 19:15:50;;;;;;;31.17;13.80;;;-0.20;99.90;;;;;;6157892;23;19998;-96
2022/02/01 19:18:20;;;;;;;52.05;23.75;;;-0.10;99.80;;;;;;6129808;23;20005;-96
2022/02/01 19:20:57;;;;;;;35.00;13.93;;;-0.10;98.70;;;;;;6131449;23;20084;-96
2022/02/01 19:23:35;;;;;;;147.55;61.70;;;-0.10;98.40;;;;;;6131452;23;20239;-95
2022/02/01 19:26:04;;;;;;;36.85;18.23;;;-0.10;98.40;;;;;;6130578;23;20002;-95
2022/02/01 19:28:32;;;;;;;27.52;12.80;;;-0.10;96.90;;;;;;6131030;23;20006;-95
2022/02/01 19:31:14;;;;;;;26.40;13.38;;;-0.10;97.70;;;;;;6134636;23;20001;-95
2022/02/01 19:33:45;;;;;;;30.55;15.43;;;-0.10;97.50;;;;;;6131455;23;20001;-95
2022/02/01 19:36:26;;;;;;;39.58;18.35;;;-0.10;97.00;;;;;;6131201;23;20033;-96
2022/02/01 19:39:13;;;;;;;31.15;15.00;;;-0.10;97.10;;;;;;6131400;23;20444;-96
2022/02/01 19:41:57;;;;;;;32.08;14.45;;;-0.10;97.60;;;;;;6131489;23;20005;-96
2022/02/01 19:44:46;;;;;;;32.35;15.80;;;-0.10;97.90;;;;;;6130894;23;20010;-96
2022/02/01 19:47:36;;;;;;;31.38;14.88;;;-0.10;98.20;;;;;;6131682;23;20001;-96
2022/02/01 19:53:15;;;;;;;31.35;16.40;;;-0.10;98.20;;;;;;6121843;23;20001;-95
2022/02/01 19:55:43;;;;;;;28.25;13.77;;;-0.20;98.00;;;;;;6131247;23;20073;-96
2022/02/01 19:58:19;;;;;;;32.90;13.57;;;-0.20;98.30;;;;;;6132149;23;20002;-95
2022/02/01 20:01:17;;;;;;;33.47;14.25;;;-0.20;97.60;;;;;;6129700;23;20056;-95
2022/02/01 20:03:48;;;;;;;27.98;12.98;;;-0.30;98.20;;;;;;6128483;23;20001;-94
2022/02/01 20:07:18;;;;;;;;;;;;;;;;;;;;;
2022/02/01 20:10:11;;;;;;;26.70;12.68;;;-0.30;98.20;;;;;;6161963;23;20033;-96
2022/02/01 20:13:04;;;;;;;23.38;12.50;;;-0.40;97.80;;;;;;6131935;23;20009;-96
2022/02/01 20:16:38;;;;;;;24.33;12.35;;;-0.50;98.00;;;;;;6133050;23;20009;-96
2022/02/01 20:19:01;;;;;;;22.42;10.25;;;-0.60;97.50;;;;;;6143706;23;20016;-96
2022/02/01 20:22:25;;;;;;;18.75;11.23;;;-0.70;97.80;;;;;;6139082;23;20021;-96
2022/02/01 20:28:05;;;;;;;21.63;11.25;;;-0.90;98.20;;;;;;6174455;23;20012;-96
2022/02/01 20:30:48;;;;;;;20.92;11.48;;;-1.10;98.40;;;;;;6168056;23;20013;-96
2022/02/01 20:33:53;;;;;;;25.10;12.00;;;-1.10;98.80;;;;;;6168009;23;20080;-96
2022/02/01 20:36:50;;;;;;;28.73;13.13;;;-1.30;98.80;;;;;;6156115;23;19997;-95
2022/02/01 20:39:54;;;;;;;21.83;11.95;;;-1.30;99.10;;;;;;6149773;23;20045;-96
2022/02/01 20:42:29;;;;;;;24.77;11.70;;;-1.40;99.30;;;;;;6162198;23;20498;-96
2022/02/01 20:45:30;;;;;;;26.10;13.73;;;-1.30;99.20;;;;;;6162652;23;20009;-96
2022/02/01 20:48:05;;;;;;;24.67;13.07;;;-1.40;99.50;;;;;;6165100;23;20005;-96
2022/02/01 20:51:05;;;;;;;31.38;14.85;;;-1.40;99.90;;;;;;6166236;23;20009;-96
2022/02/01 20:54:07;;;;;;;27.58;13.93;;;-1.40;99.90;;;;;;6188628;23;20016;-96
2022/02/01 20:57:23;;;;;;;31.40;15.13;;;-1.40;99.90;;;;;;6167609;23;20008;-96
2022/02/01 21:00:28;;;;;;;27.17;13.63;;;-1.40;99.90;;;;;;6145193;23;20024;-96
2022/02/01 21:06:30;;;;;;;29.05;14.40;;;-1.30;99.90;;;;;;6197904;23;20005;-96
2022/02/01 21:09:11;;;;;;;34.72;16.10;;;-1.30;99.90;;;;;;6136842;23;20012;-96
2022/02/01 21:12:01;;;;;;;33.13;15.43;;;-1.20;99.90;;;;;;6165986;23;20009;-96
2022/02/01 21:14:59;;;;;;;31.65;16.23;;;-1.20;99.90;;;;;;6164014;23;20073;-96
2022/02/01 21:17:52;;;;;;;;;;;;;;;;;;;;;
2022/02/01 21:20:29;;;;;;;36.58;18.33;;;-1.10;99.90;;;;;;6191716;23;20028;-96
2022/02/01 21:23:14;;;;;;;39.40;19.35;;;-1.10;99.90;;;;;;6152926;23;20017;-95
2022/02/01 21:25:57;;;;;;;;;;;;;;;;;;;;;
2022/02/01 21:28:33;;;;;;;44.60;21.15;;;-1.10;99.90;;;;;;6158580;23;20092;-95
2022/02/01 21:31:09;;;;;;;47.60;21.25;;;-1.10;99.90;;;;;;6132589;23;20010;-95
2022/02/01 21:36:38;;;;;;;41.70;17.48;;;-1.10;99.90;;;;;;6159063;23;20078;-95
2022/02/01 21:39:09;;;;;;;41.42;17.88;;;-1.20;99.90;;;;;;6132314;23;20030;-96
2022/02/01 21:41:53;;;;;;;35.83;16.85;;;-1.30;99.90;;;;;;6132211;23;20014;-96
2022/02/01 21:44:21;;;;;;;35.80;15.48;;;-1.40;99.90;;;;;;6133133;23;20005;-96
2022/02/01 21:46:59;;;;;;;36.90;17.05;;;-1.50;99.90;;;;;;6132394;23;20014;-95
2022/02/01 21:49:27;;;;;;;43.08;20.42;;;-1.60;99.90;;;;;;6132068;23;20010;-95
2022/02/01 21:52:02;;;;;;;41.80;20.10;;;-1.70;99.90;;;;;;6132965;23;20005;-96
2022/02/01 21:54:34;;;;;;;44.63;19.48;;;-1.80;99.90;;;;;;6132144;23;20001;-96
2022/02/01 21:57:11;;;;;;;46.00;20.17;;;-2.00;99.90;;;;;;6131336;23;19998;-96
2022/02/01 21:59:45;;;;;;;43.22;21.02;;;-2.00;99.90;;;;;;6132480;23;20009;-96
2022/02/01 22:02:18;;;;;;;46.33;20.70;;;-2.10;99.90;;;;;;6133150;23;20005;-96
2022/02/01 22:04:51;;;;;;;51.67;22.40;;;-2.20;99.90;;;;;;6130405;23;20005;-96
2022/02/01 22:07:39;;;;;;;49.75;21.80;;;-2.30;99.90;;;;;;6132846;23;20006;-96
2022/02/01 22:10:44;;;;;;;53.00;23.77;;;-2.40;99.90;;;;;;6132623;23;20010;-96
2022/02/01 22:13:18;;;;;;;59.80;26.83;;;-2.40;99.90;;;;;;6131842;23;20417;-96
2022/02/01 22:19:06;;;;;;;53.67;24.52;;;-2.60;99.90;;;;;;6158042;23;20005;-96
2022/02/01 22:21:43;;;;;;;59.55;25.35;;;-2.70;99.90;;;;;;6131653;23;20002;-96
2022/02/01 22:24:34;;;;;;;58.47;24.55;;;-2.70;99.90;;;;;;6131052;23;20080;-95
2022/02/01 22:27:10;;;;;;;52.40;24.38;;;-2.70;99.90;;;;;;6131842;23;20009;-96
2022/02/01 22:29:42;;;;;;;63.00;26.35;;;-2.60;99.90;;;;;;6131574;23;20352;-96
2022/02/01 22:32:37;;;;;;;65.03;28.95;;;-2.60;99.90;;;;;;6132366;23;20005;-96
2022/02/01 22:35:21;;;;;;;68.53;32.13;;;-2.50;99.90;;;;;;6132089;23;20009;-96
2022/02/01 22:38:14;;;;;;;73.30;31.27;;;-2.50;99.90;;;;;;6131726;23;20084;-95
2022/02/01 22:40:48;;;;;;;63.22;27.85;;;-2.50;99.90;;;;;;6130761;23;19997;-96
2022/02/01 22:43:29;;;;;;;58.03;27.10;;;-2.50;99.90;;;;;;6131030;23;20084;-96
2022/02/01 22:45:57;;;;;;;58.42;26.33;;;-2.50;99.90;;;;;;6131473;23;20006;-96
2022/02/01 22:48:29;;;;;;;56.90;25.42;;;-2.50;99.90;;;;;;6132420;23;20376;-96
2022/02/01 22:51:42;;;;;;;60.10;26.52;;;-2.60;99.90;;;;;;6131820;23;20115;-96
2022/02/01 22:54:13;;;;;;;61.58;27.25;;;-2.60;99.90;;;;;;6130809;23;20033;-95
2022/02/01 22:56:39;;;;;;;62.58;26.90;;;-2.60;99.90;;;;;;6131304;23;20005;-96
2022/02/01 22:59:28;;;;;;;57.60;25.90;;;-2.60;99.90;;;;;;6131440;23;20006;-96
2022/02/01 23:01:57;;;;;;;54.47;25.75;;;-2.70;99.90;;;;;;6130781;23;20002;-96
2022/02/01 23:19:47;;;;;;;52.80;24.88;;;-3.10;99.90;;;;;;6157568;23;20064;-96
2022/02/01 23:22:40;;;;;;;56.33;25.30;;;-3.10;99.90;;;;;;6131862;23;20016;-96
2022/02/01 23:25:07;;;;;;;53.33;23.08;;;-3.20;99.90;;;;;;6160428;23;20332;-96
2022/02/01 23:27:49;;;;;;;59.55;27.50;;;-3.20;99.90;;;;;;6160684;23;20012;-96
2022/02/01 23:30:37;;;;;;;57.17;25.38;;;-3.20;99.90;;;;;;6160766;23;20005;-96
2022/02/01 23:33:29;;;;;;;57.58;25.90;;;-3.20;99.90;;;;;;6162205;23;20005;-96
2022/02/01 23:39:09;;;;;;;50.58;24.63;;;-3.20;99.90;;;;;;6196967;23;20364;-96
2022/02/01 23:50:03;;;;;;;48.20;22.90;;;-3.20;99.90;;;;;;6187389;23;20015;-96
2022/02/01 23:52:43;;;;;;;49.33;21.55;;;-3.20;99.90;;;;;;6161084;23;20005;-96
2022/02/01 23:55:18;;;;;;;43.88;22.63;;;-3.10;99.90;;;;;;6161045;23;20029;-96
2022/02/01 23:58:04;;;;;;;43.80;22.55;;;-3.20;99.90;;;;;;6160431;23;20076;-96
